createdAt,value
2018-06-02T00:02:18.529Z,84.50
2018-06-02T00:04:46.008Z,83.80
2018-06-02T00:07:14.265Z,84.20
2018-06-02T00:09:41.729Z,84.20
2018-06-02T00:12:09.240Z,84.40
2018-06-02T00:14:36.697Z,84.70
2018-06-02T00:17:04.201Z,83.90
2018-06-02T00:19:31.760Z,84.10
2018-06-02T00:21:59.324Z,84.70
2018-06-02T00:24:26.889Z,84.20
2018-06-02T00:26:54.436Z,83.80
2018-06-02T00:29:21.905Z,84.10
2018-06-02T00:31:49.453Z,84.60
2018-06-02T00:34:16.935Z,84.80
2018-06-02T00:36:44.403Z,84.70
2018-06-02T00:39:12.632Z,85.30
2018-06-02T00:41:40.104Z,85.30
2018-06-02T00:44:07.672Z,85.30
2018-06-02T00:46:35.145Z,85.10
2018-06-02T00:49:02.608Z,86.10
2018-06-02T00:51:30.872Z,85.60
2018-06-02T00:53:58.350Z,85.60
2018-06-02T00:56:26.581Z,85.10
2018-06-02T00:58:54.045Z,85.00
2018-06-02T01:01:21.617Z,85.00
2018-06-02T01:03:49.072Z,84.60
2018-06-02T01:06:16.532Z,83.90
2018-06-02T01:08:43.989Z,84.20
2018-06-02T01:11:12.269Z,85.00
2018-06-02T01:13:39.730Z,85.00
2018-06-02T01:16:07.196Z,84.30
2018-06-02T01:18:34.745Z,84.60
2018-06-02T01:21:02.213Z,84.80
2018-06-02T01:23:29.779Z,84.50
2018-06-02T01:25:57.241Z,85.20
2018-06-02T01:28:25.509Z,85.50
2018-06-02T01:30:53.053Z,85.50
2018-06-02T01:33:20.535Z,83.70
2018-06-02T01:35:48.804Z,84.20
2018-06-02T01:38:16.391Z,84.10
2018-06-02T01:40:44.629Z,84.40
2018-06-02T01:43:12.136Z,84.40
2018-06-02T01:45:39.605Z,84.30
2018-06-02T01:48:07.077Z,84.60
2018-06-02T01:50:34.560Z,84.30
2018-06-02T01:53:02.022Z,84.80
2018-06-02T01:55:29.489Z,85.40
2018-06-02T01:57:56.964Z,85.20
2018-06-02T02:00:25.197Z,85.50
2018-06-02T02:02:52.669Z,85.40
2018-06-02T02:05:20.229Z,86.00
2018-06-02T02:07:47.697Z,86.10
2018-06-02T02:10:15.169Z,86.90
2018-06-02T02:12:42.645Z,86.90
2018-06-02T02:15:10.886Z,87.60
2018-06-02T02:17:38.345Z,87.70
2018-06-02T02:20:05.812Z,87.60
2018-06-02T02:22:33.272Z,88.00
2018-06-02T02:25:00.734Z,87.80
2018-06-02T02:27:28.273Z,88.80
2018-06-02T02:29:55.753Z,87.80
2018-06-02T02:32:23.217Z,88.20
2018-06-02T02:34:51.457Z,89.10
2018-06-02T02:37:18.934Z,88.30
2018-06-02T02:39:46.419Z,87.70
2018-06-02T02:42:13.865Z,88.10
2018-06-02T02:44:42.112Z,89.50
2018-06-02T02:47:10.401Z,88.70
2018-06-02T02:49:37.957Z,88.80
2018-06-02T02:52:05.418Z,89.10
2018-06-02T02:54:33.182Z,89.60
2018-06-02T02:57:00.745Z,89.30
2018-06-02T02:59:28.224Z,89.50
2018-06-02T03:01:56.459Z,89.60
2018-06-02T03:04:23.922Z,89.10
2018-06-02T03:06:51.479Z,89.20
2018-06-02T03:09:18.942Z,89.10
2018-06-02T03:11:46.400Z,89.10
2018-06-02T03:14:13.869Z,89.30
2018-06-02T03:16:41.353Z,89.40
2018-06-02T03:19:09.644Z,89.90
2018-06-02T03:21:37.069Z,89.90
2018-06-02T03:24:04.529Z,90.00
2018-06-02T03:26:32.085Z,90.40
2018-06-02T03:28:59.549Z,90.40
2018-06-02T03:31:27.161Z,90.40
2018-06-02T03:33:54.627Z,90.40
2018-06-02T03:36:22.090Z,90.60
2018-06-02T03:38:49.560Z,90.80
2018-06-02T03:41:17.036Z,90.90
2018-06-02T03:43:44.501Z,91.00
2018-06-02T03:46:11.965Z,90.90
2018-06-02T03:48:39.431Z,91.10
2018-06-02T03:51:07.685Z,91.00
2018-06-02T03:53:35.142Z,91.00
2018-06-02T03:56:02.665Z,90.50
2018-06-02T03:58:30.221Z,90.60
2018-06-02T04:00:57.721Z,90.70
2018-06-02T04:03:25.182Z,90.90
2018-06-02T04:05:52.641Z,91.40
2018-06-02T04:08:20.201Z,90.90
2018-06-02T04:10:47.673Z,91.00
2018-06-02T04:13:15.221Z,91.00
2018-06-02T04:15:42.777Z,91.10
2018-06-02T04:18:10.237Z,91.10
2018-06-02T04:20:37.713Z,91.10
2018-06-02T04:23:05.941Z,90.70
2018-06-02T04:25:33.412Z,90.70
2018-06-02T04:28:00.875Z,90.50
2018-06-02T04:30:28.350Z,90.60
2018-06-02T04:32:55.912Z,90.30
2018-06-02T04:35:23.478Z,90.10
2018-06-02T04:37:50.944Z,90.20
2018-06-02T04:40:19.192Z,89.20
2018-06-02T04:42:46.761Z,89.80
2018-06-02T04:45:14.222Z,89.00
2018-06-02T04:47:41.781Z,89.10
2018-06-02T04:50:09.337Z,88.10
2018-06-02T04:52:36.801Z,87.70
2018-06-02T04:55:04.269Z,86.90
2018-06-02T04:57:31.820Z,86.90
2018-06-02T04:59:59.272Z,86.30
2018-06-02T05:02:26.740Z,85.60
2018-06-02T05:04:54.221Z,85.20
2018-06-02T05:07:22.469Z,84.40
2018-06-02T05:09:49.933Z,84.40
2018-06-02T05:12:17.485Z,84.40
2018-06-02T05:14:44.965Z,83.70
2018-06-02T05:17:12.509Z,83.60
2018-06-02T05:19:40.065Z,83.40
2018-06-02T05:22:07.627Z,82.60
2018-06-02T05:24:35.190Z,82.30
2018-06-02T05:27:02.665Z,82.10
2018-06-02T05:29:30.925Z,80.50
2018-06-02T05:31:58.485Z,81.10
2018-06-02T05:34:25.963Z,80.00
2018-06-02T05:36:54.204Z,78.20
2018-06-02T05:39:21.700Z,78.00
2018-06-02T05:41:49.237Z,74.80
2018-06-02T05:44:16.857Z,71.00
2018-06-02T05:46:44.314Z,68.00
2018-06-02T05:49:11.785Z,66.00
2018-06-02T05:51:39.254Z,63.30
2018-06-02T05:54:06.734Z,62.40
2018-06-02T05:56:34.293Z,60.50
2018-06-02T05:59:01.769Z,60.60
2018-06-02T06:01:30.007Z,60.00
2018-06-02T06:03:57.469Z,59.90
2018-06-02T06:06:24.929Z,61.00
2018-06-02T06:08:52.385Z,63.00
2018-06-02T06:11:19.853Z,64.30
2018-06-02T06:13:47.317Z,65.60
2018-06-02T06:16:14.777Z,66.60
2018-06-02T06:18:42.245Z,68.30
2018-06-02T06:21:09.710Z,69.50
2018-06-02T06:23:37.248Z,68.40
2018-06-02T06:26:04.704Z,67.50
2018-06-02T06:28:32.168Z,69.70
2018-06-02T06:30:59.660Z,70.20
2018-06-02T06:33:27.889Z,70.70
2018-06-02T06:35:55.349Z,70.70
2018-06-02T06:38:22.921Z,71.60
2018-06-02T06:40:50.484Z,71.90
2018-06-02T06:43:17.954Z,72.50
2018-06-02T06:45:45.422Z,73.00
2018-06-02T06:48:13.657Z,72.80
2018-06-02T06:50:41.177Z,72.70
2018-06-02T06:53:08.684Z,72.50
2018-06-02T06:55:36.269Z,72.60
2018-06-02T06:58:03.769Z,71.90
2018-06-02T07:00:31.265Z,71.20
2018-06-02T07:02:58.736Z,70.90
2018-06-02T07:05:26.290Z,71.10
2018-06-02T07:07:53.849Z,71.10
2018-06-02T07:10:21.305Z,70.90
2018-06-02T07:12:48.765Z,69.60
2018-06-02T07:15:16.248Z,69.40
2018-06-02T07:17:44.508Z,69.40
2018-06-02T07:20:11.968Z,70.00
2018-06-02T07:22:39.527Z,69.50
2018-06-02T07:25:06.988Z,69.20
2018-06-02T07:27:35.371Z,68.80
2018-06-02T07:30:02.876Z,68.80
2018-06-02T07:32:30.335Z,67.70
2018-06-02T07:34:58.665Z,66.80
2018-06-02T07:37:26.125Z,66.70
2018-06-02T07:39:53.674Z,67.40
2018-06-02T07:42:21.233Z,68.00
2018-06-02T07:44:48.801Z,68.20
2018-06-02T07:47:16.261Z,69.30
2018-06-02T07:49:43.746Z,70.50
2018-06-02T07:52:11.965Z,70.70
2018-06-02T07:54:39.437Z,70.60
2018-06-02T07:57:06.891Z,68.60
2018-06-02T07:59:34.422Z,66.20
2018-06-02T08:02:01.921Z,64.30
2018-06-02T08:04:29.485Z,63.30
2018-06-02T08:06:56.944Z,62.40
2018-06-02T08:09:24.467Z,62.90
2018-06-02T08:11:52.678Z,62.60
2018-06-02T08:14:20.905Z,64.30
2018-06-02T08:16:48.468Z,64.20
2018-06-02T08:19:15.972Z,67.30
2018-06-02T08:21:43.436Z,69.10
2018-06-02T08:24:10.902Z,70.20
2018-06-02T08:26:39.240Z,69.80
2018-06-02T08:29:06.685Z,69.70
2018-06-02T08:31:34.145Z,70.30
2018-06-02T08:34:01.605Z,71.00
2018-06-02T08:36:29.092Z,69.70
2018-06-02T08:38:56.696Z,67.30
2018-06-02T08:41:24.109Z,67.40
2018-06-02T08:43:51.681Z,65.80
2018-06-02T08:46:19.254Z,63.30
2018-06-02T08:48:46.798Z,62.10
2018-06-02T08:51:15.137Z,59.50
2018-06-02T08:53:42.639Z,59.40
2018-06-02T08:56:10.097Z,57.90
2018-06-02T08:58:37.565Z,59.60
2018-06-02T09:01:05.037Z,59.40
2018-06-02T09:03:33.316Z,59.20
2018-06-02T09:06:01.581Z,58.60
2018-06-02T09:08:29.037Z,58.50
2018-06-02T09:10:56.500Z,60.50
2018-06-02T09:13:24.757Z,64.20
2018-06-02T09:15:52.216Z,64.00
2018-06-02T09:18:19.774Z,64.40
2018-06-02T09:20:47.233Z,65.20
2018-06-02T09:23:14.788Z,66.30
2018-06-02T09:25:42.357Z,63.80
2018-06-02T09:28:09.821Z,63.20
2018-06-02T09:30:37.372Z,62.00
2018-06-02T09:33:04.842Z,63.10
2018-06-02T09:35:32.301Z,63.30
2018-06-02T09:37:59.765Z,61.20
2018-06-02T09:40:28.017Z,61.50
2018-06-02T09:42:55.476Z,61.40
2018-06-02T09:45:22.936Z,59.00
2018-06-02T09:47:50.534Z,59.30
2018-06-02T09:50:18.053Z,60.00
2018-06-02T09:52:45.618Z,60.00
2018-06-02T09:55:13.084Z,59.70
2018-06-02T09:57:40.660Z,58.60
2018-06-02T10:00:08.109Z,58.90
2018-06-02T10:02:35.656Z,57.70
2018-06-02T10:05:03.932Z,56.00
2018-06-02T10:07:31.490Z,55.50
2018-06-02T10:09:58.956Z,55.80
2018-06-02T10:12:26.516Z,55.20
2018-06-02T10:14:53.969Z,55.10
2018-06-02T10:17:21.429Z,55.00
2018-06-02T10:19:48.888Z,54.60
2018-06-02T10:22:16.344Z,55.80
2018-06-02T10:24:44.616Z,55.90
2018-06-02T10:27:12.076Z,55.90
2018-06-02T10:29:39.693Z,56.90
2018-06-02T10:32:07.109Z,57.30
2018-06-02T10:34:34.581Z,55.60
2018-06-02T10:37:02.893Z,54.90
2018-06-02T10:39:30.401Z,54.90
2018-06-02T10:41:57.964Z,56.50
2018-06-02T10:44:25.436Z,55.60
2018-06-02T10:46:53.689Z,55.80
2018-06-02T10:49:21.144Z,55.40
2018-06-02T10:51:48.604Z,56.50
2018-06-02T10:54:16.161Z,56.70
2018-06-02T10:56:43.621Z,55.60
2018-06-02T10:59:11.084Z,53.80
2018-06-02T11:01:38.594Z,53.30
2018-06-02T11:04:06.796Z,53.90
2018-06-02T11:06:34.278Z,53.90
2018-06-02T11:09:01.842Z,54.50
2018-06-02T11:11:29.313Z,55.00
2018-06-02T11:13:56.810Z,54.90
2018-06-02T11:16:24.273Z,55.30
2018-06-02T11:18:51.740Z,53.90
2018-06-02T11:21:19.234Z,53.60
2018-06-02T11:23:46.698Z,53.40
2018-06-02T11:26:14.249Z,53.00
2018-06-02T11:28:41.808Z,53.40
2018-06-02T11:31:09.366Z,54.90
2018-06-02T11:33:36.929Z,54.00
2018-06-02T11:36:04.393Z,53.50
2018-06-02T11:38:31.860Z,52.20
2018-06-02T11:40:59.321Z,51.10
2018-06-02T11:43:27.560Z,52.00
2018-06-02T11:45:55.038Z,52.00
2018-06-02T11:48:22.658Z,53.00
2018-06-02T11:50:50.158Z,53.20
2018-06-02T11:53:17.635Z,54.10
2018-06-02T11:55:45.101Z,55.10
2018-06-02T11:58:13.333Z,55.30
2018-06-02T12:00:40.792Z,55.10
2018-06-02T12:03:08.268Z,54.60
2018-06-02T12:05:35.836Z,50.70
2018-06-02T12:08:03.293Z,50.50
2018-06-02T12:10:30.848Z,51.20
2018-06-02T12:12:58.404Z,51.30
2018-06-02T12:15:25.969Z,52.00
2018-06-02T12:17:54.199Z,52.70
2018-06-02T12:20:21.710Z,52.80
2018-06-02T12:22:49.249Z,54.20
2018-06-02T12:25:16.704Z,54.90
2018-06-02T12:27:44.188Z,53.90
2018-06-02T12:30:11.742Z,51.00
2018-06-02T12:32:39.201Z,50.40
2018-06-02T12:35:07.433Z,50.10
2018-06-02T12:37:34.906Z,50.10
2018-06-02T12:40:02.381Z,50.10
2018-06-02T12:42:29.853Z,51.10
2018-06-02T12:44:57.412Z,52.20
2018-06-02T12:47:24.884Z,50.60
2018-06-02T12:49:52.345Z,51.20
2018-06-02T12:52:20.617Z,50.90
2018-06-02T12:54:48.861Z,50.20
2018-06-02T12:57:16.388Z,50.10
2018-06-02T12:59:43.840Z,50.00
2018-06-02T13:02:11.301Z,50.00
2018-06-02T13:04:38.817Z,50.10
2018-06-02T13:07:06.286Z,50.60
2018-06-02T13:09:34.530Z,48.40
2018-06-02T13:12:02.009Z,48.30
2018-06-02T13:14:29.569Z,48.70
2018-06-02T13:16:57.131Z,49.60
2018-06-02T13:19:24.597Z,49.70
2018-06-02T13:21:52.869Z,51.50
2018-06-02T13:24:20.335Z,51.50
2018-06-02T13:26:48.557Z,51.10
2018-06-02T13:29:16.028Z,51.20
2018-06-02T13:31:43.501Z,52.10
2018-06-02T13:34:10.972Z,52.40
2018-06-02T13:36:38.442Z,52.70
2018-06-02T13:39:05.989Z,53.70
2018-06-02T13:41:33.558Z,52.70
2018-06-02T13:44:01.029Z,53.60
2018-06-02T13:46:28.573Z,54.60
2018-06-02T13:48:56.168Z,55.50
2018-06-02T13:51:24.446Z,55.30
2018-06-02T13:53:52.653Z,55.10
2018-06-02T13:56:20.140Z,55.10
2018-06-02T13:58:47.713Z,53.20
2018-06-02T14:01:15.189Z,51.70
2018-06-02T14:03:43.444Z,52.00
2018-06-02T14:06:10.921Z,52.50
2018-06-02T14:08:39.149Z,50.60
2018-06-02T14:11:07.142Z,50.60
2018-06-02T14:13:34.713Z,50.80
2018-06-02T14:16:02.272Z,50.80
2018-06-02T14:18:29.759Z,50.60
2018-06-02T14:20:58.060Z,50.10
2018-06-02T14:23:25.521Z,50.10
2018-06-02T14:25:52.981Z,51.60
2018-06-02T14:28:20.476Z,52.10
2018-06-02T14:30:48.071Z,51.40
2018-06-02T14:33:15.506Z,51.10
2018-06-02T14:35:43.058Z,51.20
2018-06-02T14:38:10.806Z,51.10
2018-06-02T14:40:38.179Z,51.20
2018-06-02T14:43:05.695Z,52.00
2018-06-02T14:45:33.206Z,52.90
2018-06-02T14:48:00.678Z,52.70
2018-06-02T14:50:28.989Z,52.70
2018-06-02T14:52:56.494Z,52.60
2018-06-02T14:55:23.968Z,53.00
2018-06-02T14:57:52.291Z,53.40
2018-06-02T15:00:19.749Z,53.30
2018-06-02T15:02:47.225Z,53.10
2018-06-02T15:05:14.718Z,52.60
2018-06-02T15:07:42.150Z,53.10
2018-06-02T15:10:09.637Z,53.90
2018-06-02T15:12:37.897Z,52.80
2018-06-02T15:15:05.356Z,52.50
2018-06-02T15:17:32.828Z,51.10
2018-06-02T15:20:00.292Z,51.90
2018-06-02T15:22:28.529Z,50.00
2018-06-02T15:24:55.994Z,50.00
2018-06-02T15:27:23.565Z,50.80
2018-06-02T15:29:51.037Z,50.80
2018-06-02T15:32:19.271Z,51.00
2018-06-02T15:34:46.765Z,51.00
2018-06-02T15:37:14.225Z,51.10
2018-06-02T15:39:41.774Z,50.60
2018-06-02T15:42:09.241Z,50.00
2018-06-02T15:44:36.804Z,50.40
2018-06-02T15:47:04.261Z,50.60
2018-06-02T15:49:31.721Z,51.00
2018-06-02T15:51:59.268Z,51.40
2018-06-02T15:54:26.894Z,51.90
2018-06-02T15:56:54.454Z,51.70
2018-06-02T15:59:21.916Z,51.00
2018-06-02T16:01:49.413Z,50.20
2018-06-02T16:04:16.975Z,49.60
2018-06-02T16:06:44.545Z,50.00
2018-06-02T16:09:12.010Z,48.70
2018-06-02T16:11:39.473Z,49.40
2018-06-02T16:14:07.729Z,49.20
2018-06-02T16:16:35.289Z,49.10
2018-06-02T16:19:02.849Z,48.00
2018-06-02T16:21:30.406Z,49.90
2018-06-02T16:23:57.969Z,50.40
2018-06-02T16:26:25.429Z,50.50
2018-06-02T16:28:52.898Z,49.70
2018-06-02T16:31:21.129Z,50.90
2018-06-02T16:33:48.627Z,50.60
2018-06-02T16:36:16.182Z,51.50
2018-06-02T16:38:43.767Z,49.40
2018-06-02T16:41:12.021Z,50.80
2018-06-02T16:43:40.250Z,50.70
2018-06-02T16:46:07.756Z,50.70
2018-06-02T16:48:35.314Z,51.90
2018-06-02T16:51:02.879Z,51.90
2018-06-02T16:53:30.397Z,52.80
2018-06-02T16:55:57.889Z,53.00
2018-06-02T16:58:25.352Z,52.20
2018-06-02T17:00:52.970Z,52.20
2018-06-02T17:03:20.468Z,53.10
2018-06-02T17:05:47.943Z,53.20
2018-06-02T17:08:15.489Z,53.60
2018-06-02T17:10:42.948Z,53.40
2018-06-02T17:13:10.426Z,53.60
2018-06-02T17:15:38.743Z,51.80
2018-06-02T17:18:06.193Z,52.30
2018-06-02T17:20:33.663Z,52.50
2018-06-02T17:23:01.125Z,53.30
2018-06-02T17:25:28.617Z,52.80
2018-06-02T17:27:56.082Z,52.80
2018-06-02T17:30:23.537Z,53.00
2018-06-02T17:32:51.001Z,53.10
2018-06-02T17:35:18.549Z,52.70
2018-06-02T17:37:46.013Z,53.40
2018-06-02T17:40:13.585Z,53.70
2018-06-02T17:42:41.045Z,53.70
2018-06-02T17:45:08.565Z,53.60
2018-06-02T17:47:36.110Z,54.30
2018-06-02T17:50:03.667Z,55.20
2018-06-02T17:52:31.128Z,55.50
2018-06-02T17:54:58.585Z,56.00
2018-06-02T17:57:26.053Z,56.00
2018-06-02T17:59:53.543Z,56.90
2018-06-02T18:02:21.113Z,56.30
2018-06-02T18:04:48.584Z,56.40
2018-06-02T18:07:16.813Z,56.70
2018-06-02T18:09:44.273Z,56.70
2018-06-02T18:12:11.738Z,56.60
2018-06-02T18:14:39.210Z,56.80
2018-06-02T18:17:06.681Z,56.90
2018-06-02T18:19:34.239Z,57.70
2018-06-02T18:22:01.801Z,58.10
2018-06-02T18:24:29.418Z,57.10
2018-06-02T18:26:56.892Z,56.10
2018-06-02T18:29:24.373Z,55.70
2018-06-02T18:31:51.832Z,55.90
2018-06-02T18:34:19.448Z,55.60
2018-06-02T18:36:46.901Z,55.70
2018-06-02T18:39:14.468Z,56.00
2018-06-02T18:41:41.969Z,56.20
2018-06-02T18:44:09.441Z,56.90
2018-06-02T18:46:36.906Z,57.40
2018-06-02T18:49:05.138Z,58.10
2018-06-02T18:51:32.612Z,58.10
2018-06-02T18:54:00.076Z,58.90
2018-06-02T18:56:27.640Z,59.30
2018-06-02T18:58:55.097Z,59.10
2018-06-02T19:01:22.570Z,59.40
2018-06-02T19:03:50.030Z,59.90
2018-06-02T19:06:18.285Z,60.30
2018-06-02T19:08:45.844Z,60.30
2018-06-02T19:11:13.313Z,60.90
2018-06-02T19:13:40.773Z,61.60
2018-06-02T19:16:08.385Z,61.00
2018-06-02T19:18:35.840Z,62.40
2018-06-02T19:21:03.368Z,66.40
2018-06-02T19:23:31.628Z,69.90
2018-06-02T19:25:59.107Z,69.90
2018-06-02T19:28:27.324Z,70.10
2018-06-02T19:30:54.817Z,69.30
2018-06-02T19:33:22.284Z,69.50
2018-06-02T19:35:49.756Z,69.90
2018-06-02T19:38:17.990Z,70.10
2018-06-02T19:40:45.449Z,70.10
2018-06-02T19:43:12.929Z,70.80
2018-06-02T19:45:40.485Z,70.90
2018-06-02T19:48:08.104Z,72.00
2018-06-02T19:50:35.509Z,71.30
2018-06-02T19:53:02.983Z,71.40
2018-06-02T19:55:31.241Z,71.40
2018-06-02T19:57:58.797Z,71.40
2018-06-02T20:00:26.357Z,71.90
2018-06-02T20:02:54.584Z,72.50
2018-06-02T20:05:22.049Z,72.60
2018-06-02T20:07:49.585Z,72.40
2018-06-02T20:10:17.113Z,72.30
2018-06-02T20:12:44.681Z,72.90
2018-06-02T20:15:12.153Z,73.50
2018-06-02T20:17:40.417Z,74.10
2018-06-02T20:20:07.901Z,74.00
2018-06-02T20:22:36.155Z,74.80
2018-06-02T20:25:03.634Z,74.80
2018-06-02T20:27:31.892Z,75.10
2018-06-02T20:29:59.369Z,75.00
2018-06-02T20:32:27.613Z,74.70
2018-06-02T20:34:55.176Z,74.70
2018-06-02T20:37:22.732Z,74.90
2018-06-02T20:39:50.296Z,75.20
2018-06-02T20:42:17.856Z,75.40
2018-06-02T20:44:45.421Z,75.90
2018-06-02T20:47:12.889Z,76.10
2018-06-02T20:49:40.353Z,76.40
2018-06-02T20:52:08.613Z,77.30
2018-06-02T20:54:36.086Z,77.20
2018-06-02T20:57:04.317Z,78.00
2018-06-02T20:59:31.792Z,77.20
2018-06-02T21:02:00.141Z,77.50
2018-06-02T21:04:27.643Z,77.70
2018-06-02T21:06:55.112Z,77.40
2018-06-02T21:09:22.576Z,77.00
2018-06-02T21:11:50.839Z,77.30
2018-06-02T21:14:18.300Z,78.00
2018-06-02T21:16:45.765Z,77.90
2018-06-02T21:19:13.225Z,78.80
2018-06-02T21:21:40.768Z,78.30
2018-06-02T21:24:08.999Z,78.60
2018-06-02T21:26:36.461Z,78.60
2018-06-02T21:29:03.922Z,78.90
2018-06-02T21:31:31.417Z,79.10
2018-06-02T21:33:58.981Z,79.60
2018-06-02T21:36:27.263Z,80.10
2018-06-02T21:38:54.739Z,80.10
2018-06-02T21:41:22.977Z,81.00
2018-06-02T21:43:50.459Z,81.00
2018-06-02T21:46:17.936Z,81.40
2018-06-02T21:48:46.152Z,83.20
2018-06-02T21:51:13.625Z,82.30
2018-06-02T21:53:41.105Z,82.60
2018-06-02T21:56:08.561Z,83.10
2018-06-02T21:58:36.028Z,83.40
2018-06-02T22:01:03.582Z,83.80
2018-06-02T22:03:31.141Z,84.20
2018-06-02T22:05:58.602Z,84.20
2018-06-02T22:08:26.072Z,84.70
2018-06-02T22:10:53.620Z,84.80
2018-06-02T22:13:21.081Z,85.10
2018-06-02T22:15:48.540Z,85.40
2018-06-02T22:18:16.017Z,85.70
2018-06-02T22:20:44.285Z,86.20
2018-06-02T22:23:11.830Z,86.00
2018-06-02T22:25:39.288Z,86.40
2018-06-02T22:28:06.754Z,86.50
2018-06-02T22:30:34.220Z,86.90
2018-06-02T22:33:02.480Z,87.90
2018-06-02T22:35:30.036Z,87.40
2018-06-02T22:37:57.509Z,87.50
2018-06-02T22:40:24.978Z,88.00
2018-06-02T22:42:53.247Z,88.60
2018-06-02T22:45:20.790Z,88.60
2018-06-02T22:47:48.251Z,89.40
2018-06-02T22:50:15.730Z,89.00
2018-06-02T22:52:43.957Z,89.50
2018-06-02T22:55:11.414Z,89.50
2018-06-02T22:57:38.904Z,89.70
2018-06-02T23:00:07.135Z,90.10
2018-06-02T23:02:34.597Z,90.00
2018-06-02T23:05:02.072Z,90.10
2018-06-02T23:07:29.531Z,90.10
2018-06-02T23:09:56.985Z,90.10
2018-06-02T23:12:24.456Z,90.20
2018-06-02T23:14:51.909Z,90.30
2018-06-02T23:17:19.385Z,90.40
2018-06-02T23:19:46.850Z,90.40
2018-06-02T23:22:38.845Z,90.40
2018-06-02T23:25:06.308Z,90.50
2018-06-02T23:27:33.781Z,90.50
2018-06-02T23:30:01.237Z,90.50
2018-06-02T23:32:28.817Z,90.40
2018-06-02T23:34:57.091Z,90.70
2018-06-02T23:37:24.661Z,90.70
2018-06-02T23:39:52.214Z,90.80
2018-06-02T23:42:19.768Z,91.20
2018-06-02T23:44:47.228Z,90.80
2018-06-02T23:47:14.784Z,90.80
2018-06-02T23:49:42.349Z,90.80
2018-06-02T23:52:09.913Z,90.70
2018-06-02T23:54:37.381Z,90.70
2018-06-02T23:57:04.929Z,90.90
2018-06-02T23:59:33.264Z,90.90
